Time;durP1;ratioP1;P1;durP2;ratioP2;P2;SDS_P1;SDS_P2;PMS_P1;PMS_P2;Temp;Humidity;BMP_temperature;BMP_pressure;BME280_temperature;BME280_humidity;BME280_pressure;Samples;Min_cycle;Max_cycle;Signal;HPM_P1;HPM_P2
2022/03/21 00:00:55;;;;;;;129.88;53.88;;;;;;;;;;4995583;28;20037;-80
2022/03/21 00:03:22;;;;;;;114.32;47.95;;;;;;;;;;5011757;28;20045;-80
2022/03/21 00:05:48;;;;;;;97.20;44.10;;;;;;;;;;5011958;28;20052;-80
2022/03/21 00:08:17;;;;;;;106.05;49.25;;;;;;;;;;5011810;28;20049;-80
2022/03/21 00:10:43;;;;;;;105.00;48.90;;;;;;;;;;5012218;28;20128;-80
2022/03/21 00:13:09;;;;;;;89.45;42.22;;;;;;;;;;5011908;28;20045;-80
2022/03/21 00:15:36;;;;;;;85.57;40.20;;;;;;;;;;5011474;28;20045;-78
2022/03/21 00:18:04;;;;;;;95.90;45.05;;;;;;;;;;5011526;28;20103;-78
2022/03/21 00:20:31;;;;;;;114.78;49.28;;;;;;;;;;5011634;28;20436;-78
2022/03/21 00:22:57;;;;;;;115.10;50.30;;;;;;;;;;5029313;28;20041;-78
2022/03/21 00:25:23;;;;;;;128.90;51.92;;;;;;;;;;4994848;28;20045;-78
2022/03/21 00:27:49;;;;;;;126.15;52.45;;;;;;;;;;5029208;28;20037;-78
2022/03/21 00:30:16;;;;;;;131.07;54.67;;;;;;;;;;5011081;28;20037;-78
2022/03/21 00:32:44;;;;;;;129.52;53.35;;;;;;;;;;5011722;28;20124;-79
2022/03/21 00:35:12;;;;;;;126.03;53.95;;;;;;;;;;5010968;28;20505;-78
2022/03/21 00:37:39;;;;;;;134.73;55.78;;;;;;;;;;5011261;28;20049;-78
2022/03/21 00:40:07;;;;;;;134.00;55.50;;;;;;;;;;4995524;28;20045;-78
2022/03/21 00:42:34;;;;;;;130.98;55.13;;;;;;;;;;5012208;28;20559;-78
2022/03/21 00:45:05;;;;;;;134.48;54.50;;;;;;;;;;5030240;28;20037;-77
2022/03/21 00:47:31;;;;;;;137.65;55.95;;;;;;;;;;5012909;28;20116;-78
2022/03/21 00:49:57;;;;;;;138.82;55.70;;;;;;;;;;5029464;28;20041;-77
2022/03/21 00:52:24;;;;;;;134.93;55.63;;;;;;;;;;5010961;28;20486;-78
2022/03/21 00:54:50;;;;;;;130.07;52.63;;;;;;;;;;5010952;28;20048;-79
2022/03/21 00:57:16;;;;;;;134.85;53.58;;;;;;;;;;5011365;28;20033;-78
2022/03/21 00:59:42;;;;;;;126.53;53.38;;;;;;;;;;5011715;28;20099;-80
2022/03/21 01:02:08;;;;;;;127.43;53.17;;;;;;;;;;4974424;28;20495;-80
2022/03/21 01:04:35;;;;;;;135.15;54.53;;;;;;;;;;4972092;28;20058;-78
2022/03/21 01:07:02;;;;;;;127.80;54.03;;;;;;;;;;4988421;28;20057;-78
2022/03/21 01:09:28;;;;;;;123.28;53.22;;;;;;;;;;4988489;28;20509;-78
2022/03/21 01:11:54;;;;;;;125.10;53.80;;;;;;;;;;4990066;28;20046;-78
2022/03/21 01:14:20;;;;;;;123.60;52.35;;;;;;;;;;4971854;28;20445;-79
2022/03/21 01:16:46;;;;;;;121.85;50.88;;;;;;;;;;4987968;28;20070;-78
2022/03/21 01:19:12;;;;;;;118.22;49.08;;;;;;;;;;4987881;28;20041;-78
2022/03/21 01:21:38;;;;;;;119.07;52.42;;;;;;;;;;4988208;28;20042;-80
2022/03/21 01:24:05;;;;;;;115.00;50.60;;;;;;;;;;4987862;28;20733;-78
2022/03/21 01:26:31;;;;;;;124.00;55.33;;;;;;;;;;4987718;28;20475;-78
2022/03/21 01:28:57;;;;;;;124.20;53.72;;;;;;;;;;4987921;28;20038;-79
2022/03/21 01:31:23;;;;;;;126.07;55.15;;;;;;;;;;4987609;28;20526;-79
2022/03/21 01:33:49;;;;;;;121.28;53.05;;;;;;;;;;4989180;28;20042;-79
2022/03/21 01:36:16;;;;;;;118.32;52.60;;;;;;;;;;4987466;28;20034;-79
2022/03/21 01:38:42;;;;;;;112.45;50.92;;;;;;;;;;4988909;28;20038;-79
2022/03/21 01:41:08;;;;;;;122.72;52.72;;;;;;;;;;4971060;28;20039;-78
2022/03/21 01:43:54;;;;;;;113.07;51.13;;;;;;;;;;4955660;28;20522;-78
2022/03/21 01:46:20;;;;;;;85.53;38.28;;;;;;;;;;4987342;28;20482;-78
2022/03/21 01:48:46;;;;;;;108.93;49.05;;;;;;;;;;4987718;28;20042;-80
2022/03/21 01:51:12;;;;;;;107.05;51.13;;;;;;;;;;4987634;28;20046;-80
2022/03/21 01:56:23;;;;;;;110.30;51.50;;;;;;;;;;4987080;28;20050;-79
2022/03/21 01:58:49;;;;;;;111.60;51.97;;;;;;;;;;4987247;28;20073;-78
2022/03/21 02:01:15;;;;;;;108.95;50.35;;;;;;;;;;5031038;28;20055;-78
2022/03/21 02:03:41;;;;;;;112.38;50.55;;;;;;;;;;5088788;28;20102;-78
2022/03/21 02:06:07;;;;;;;108.97;51.17;;;;;;;;;;5073025;28;20048;-78
2022/03/21 02:08:33;;;;;;;111.10;50.65;;;;;;;;;;5089786;28;20059;-78
2022/03/21 02:11:00;;;;;;;106.63;48.20;;;;;;;;;;5088991;28;20524;-78
2022/03/21 02:13:27;;;;;;;107.50;48.88;;;;;;;;;;5083258;28;20051;-80
2022/03/21 02:15:53;;;;;;;110.88;51.38;;;;;;;;;;5088729;28;20194;-80
2022/03/21 02:18:20;;;;;;;103.78;50.78;;;;;;;;;;5076296;28;20064;-81
2022/03/21 02:20:46;;;;;;;101.15;48.75;;;;;;;;;;5087299;28;20044;-81
2022/03/21 02:23:26;;;;;;;103.55;49.08;;;;;;;;;;5087103;28;20032;-81
2022/03/21 02:25:54;;;;;;;105.57;50.03;;;;;;;;;;5087098;28;20074;-81
2022/03/21 02:28:21;;;;;;;100.68;47.85;;;;;;;;;;5070121;28;20044;-80
2022/03/21 02:30:48;;;;;;;103.10;48.97;;;;;;;;;;5071650;28;20074;-78
2022/03/21 02:33:15;;;;;;;95.70;46.67;;;;;;;;;;5070406;28;20036;-81
2022/03/21 02:35:44;;;;;;;99.32;47.40;;;;;;;;;;5088920;28;20044;-79
2022/03/21 02:38:10;;;;;;;105.75;49.78;;;;;;;;;;5088867;28;20093;-79
2022/03/21 02:40:36;;;;;;;107.00;49.92;;;;;;;;;;5086745;28;20089;-78
2022/03/21 02:43:02;;;;;;;105.00;50.40;;;;;;;;;;5086164;28;20070;-80
2022/03/21 02:45:28;;;;;;;109.65;50.85;;;;;;;;;;5069803;28;20119;-81
2022/03/21 02:47:54;;;;;;;117.32;50.53;;;;;;;;;;5084693;28;20473;-80
2022/03/21 02:50:33;;;;;;;113.47;51.60;;;;;;;;;;5072196;28;20059;-79
2022/03/21 02:52:59;;;;;;;114.57;51.00;;;;;;;;;;5088824;28;20043;-79
2022/03/21 02:55:25;;;;;;;118.68;53.20;;;;;;;;;;5086372;28;20481;-79
2022/03/21 02:57:52;;;;;;;118.82;53.10;;;;;;;;;;5088885;28;20032;-79
2022/03/21 03:00:18;;;;;;;116.30;52.97;;;;;;;;;;5088637;28;20443;-79
2022/03/21 03:02:44;;;;;;;116.82;52.38;;;;;;;;;;5016445;28;20172;-79
2022/03/21 03:05:10;;;;;;;121.15;54.58;;;;;;;;;;5008953;28;20052;-79
2022/03/21 03:07:36;;;;;;;124.55;54.97;;;;;;;;;;5008825;28;20049;-80
2022/03/21 03:10:03;;;;;;;125.25;53.53;;;;;;;;;;5009588;28;20098;-80
2022/03/21 03:12:29;;;;;;;120.47;54.92;;;;;;;;;;5008898;28;20045;-80
2022/03/21 03:14:55;;;;;;;127.70;56.08;;;;;;;;;;5009414;28;20041;-80
2022/03/21 03:17:21;;;;;;;130.93;56.78;;;;;;;;;;5009234;28;20482;-80
2022/03/21 03:19:47;;;;;;;134.90;55.85;;;;;;;;;;5007296;28;20484;-80
2022/03/21 03:22:14;;;;;;;134.18;56.53;;;;;;;;;;5008894;28;20042;-78
2022/03/21 03:24:41;;;;;;;144.40;57.97;;;;;;;;;;5027761;28;20128;-78
2022/03/21 03:27:07;;;;;;;134.73;56.30;;;;;;;;;;5012795;28;20538;-78
2022/03/21 03:29:33;;;;;;;137.05;56.38;;;;;;;;;;5012448;28;20109;-78
2022/03/21 03:32:03;;;;;;;140.30;56.15;;;;;;;;;;5012338;28;20474;-79
2022/03/21 03:34:30;;;;;;;136.05;56.47;;;;;;;;;;5012479;28;20048;-78
2022/03/21 03:36:56;;;;;;;133.18;56.15;;;;;;;;;;4996103;28;20387;-78
2022/03/21 03:39:22;;;;;;;141.00;57.00;;;;;;;;;;5012148;28;20042;-80
2022/03/21 03:41:49;;;;;;;138.80;57.08;;;;;;;;;;5012397;28;20041;-80
2022/03/21 03:44:16;;;;;;;132.90;56.15;;;;;;;;;;4995982;28;20075;-80
2022/03/21 03:46:43;;;;;;;139.45;56.30;;;;;;;;;;5012616;28;20483;-80
2022/03/21 03:49:09;;;;;;;144.23;57.22;;;;;;;;;;5012490;28;20040;-80
2022/03/21 03:51:35;;;;;;;140.00;56.60;;;;;;;;;;5011849;28;20486;-80
2022/03/21 03:54:01;;;;;;;138.43;58.72;;;;;;;;;;5011760;28;20037;-80
2022/03/21 03:56:27;;;;;;;145.90;57.22;;;;;;;;;;5029798;28;20044;-80
2022/03/21 03:58:53;;;;;;;138.20;55.80;;;;;;;;;;4995906;28;20086;-80
2022/03/21 04:01:19;;;;;;;148.15;56.75;;;;;;;;;;5011750;28;20148;-80
2022/03/21 04:03:46;;;;;;;134.43;55.55;;;;;;;;;;4995828;28;20048;-80
2022/03/21 04:06:16;;;;;;;138.32;55.33;;;;;;;;;;4995496;28;20091;-80
2022/03/21 04:08:42;;;;;;;136.68;55.03;;;;;;;;;;5012197;28;20053;-80
2022/03/21 04:11:09;;;;;;;137.10;53.92;;;;;;;;;;5012245;28;20482;-79
2022/03/21 04:13:35;;;;;;;130.10;52.72;;;;;;;;;;5011504;28;20050;-80
2022/03/21 04:16:01;;;;;;;138.90;54.53;;;;;;;;;;5011710;28;20402;-80
2022/03/21 04:18:28;;;;;;;132.95;53.03;;;;;;;;;;5011341;28;20048;-80
2022/03/21 04:20:54;;;;;;;131.55;53.55;;;;;;;;;;5011587;28;20041;-80
2022/03/21 04:23:20;;;;;;;145.35;55.97;;;;;;;;;;5010934;28;20041;-80
2022/03/21 04:25:47;;;;;;;134.02;54.10;;;;;;;;;;5012017;28;20037;-80
2022/03/21 04:28:14;;;;;;;141.48;54.28;;;;;;;;;;5011459;28;20053;-80
2022/03/21 04:30:41;;;;;;;133.75;52.70;;;;;;;;;;5011623;28;20049;-80
2022/03/21 04:33:12;;;;;;;136.13;54.72;;;;;;;;;;5009018;28;20056;-78
2022/03/21 04:35:38;;;;;;;140.40;54.10;;;;;;;;;;4994443;28;20442;-79
2022/03/21 04:38:12;;;;;;;129.60;52.78;;;;;;;;;;5011470;28;20395;-78
2022/03/21 04:40:38;;;;;;;143.13;54.40;;;;;;;;;;4994861;28;20073;-78
2022/03/21 04:43:04;;;;;;;133.95;52.97;;;;;;;;;;5011018;28;20087;-78
2022/03/21 04:45:31;;;;;;;147.13;55.28;;;;;;;;;;4994807;28;20072;-78
2022/03/21 04:47:57;;;;;;;134.95;52.15;;;;;;;;;;5011868;28;20045;-78
2022/03/21 04:50:23;;;;;;;132.35;53.72;;;;;;;;;;5028862;28;20514;-79
2022/03/21 04:52:49;;;;;;;136.02;53.03;;;;;;;;;;5011159;28;20094;-79
2022/03/21 04:55:15;;;;;;;120.78;51.33;;;;;;;;;;5028839;28;20095;-79
2022/03/21 04:57:42;;;;;;;132.20;51.40;;;;;;;;;;4995120;28;20045;-79
2022/03/21 05:00:08;;;;;;;128.20;52.15;;;;;;;;;;5011955;28;20490;-78
2022/03/21 05:02:34;;;;;;;132.82;51.92;;;;;;;;;;5003853;28;20046;-78
2022/03/21 05:05:00;;;;;;;134.73;52.00;;;;;;;;;;5012019;28;20516;-79
2022/03/21 05:07:26;;;;;;;124.18;48.55;;;;;;;;;;5012316;28;20673;-79
2022/03/21 05:09:53;;;;;;;132.35;51.67;;;;;;;;;;5013376;28;20060;-78
2022/03/21 05:12:20;;;;;;;142.98;50.80;;;;;;;;;;5010965;28;20045;-78
2022/03/21 05:14:47;;;;;;;129.68;51.00;;;;;;;;;;5012556;28;20106;-79
2022/03/21 05:17:17;;;;;;;130.55;50.97;;;;;;;;;;5011746;28;20394;-79
2022/03/21 05:19:44;;;;;;;131.13;50.70;;;;;;;;;;5011894;28;20080;-79
2022/03/21 05:22:10;;;;;;;147.40;52.53;;;;;;;;;;5012605;28;20048;-79
2022/03/21 05:35:54;;;;;;;139.02;49.17;;;;;;;;;;5011106;28;20041;-79
2022/03/21 05:35:57;;;;;;;122.55;45.05;;;;;;;;;;5028584;28;20085;-80
2022/03/21 05:38:24;;;;;;;117.30;45.35;;;;;;;;;;4980270;28;20162;-81
2022/03/21 05:40:52;;;;;;;111.97;45.22;;;;;;;;;;5011057;28;20444;-81
2022/03/21 05:43:18;;;;;;;121.07;46.47;;;;;;;;;;5010560;28;20409;-81
2022/03/21 05:45:44;;;;;;;120.70;45.95;;;;;;;;;;5010987;28;20156;-81
2022/03/21 05:50:56;;;;;;;118.85;46.95;;;;;;;;;;5028031;28;20071;-81
2022/03/21 05:53:22;;;;;;;122.32;47.58;;;;;;;;;;4993888;28;20102;-81
2022/03/21 05:55:48;;;;;;;126.68;44.97;;;;;;;;;;5010224;28;20041;-81
2022/03/21 05:58:14;;;;;;;111.57;45.38;;;;;;;;;;5010302;28;20079;-80
2022/03/21 06:00:41;;;;;;;110.90;44.67;;;;;;;;;;5010829;28;20491;-81
2022/03/21 06:03:08;;;;;;;104.57;44.03;;;;;;;;;;5010706;28;20455;-80
2022/03/21 06:05:37;;;;;;;92.50;43.42;;;;;;;;;;4995197;28;20140;-80
2022/03/21 06:08:04;;;;;;;89.85;42.53;;;;;;;;;;5010826;28;20041;-80
2022/03/21 06:10:30;;;;;;;86.43;40.58;;;;;;;;;;5010421;28;20098;-80
2022/03/21 06:12:56;;;;;;;80.70;39.83;;;;;;;;;;5010456;28;20045;-80
2022/03/21 06:15:22;;;;;;;75.35;38.50;;;;;;;;;;5009955;28;20049;-81
2022/03/21 06:17:49;;;;;;;71.22;38.10;;;;;;;;;;5010251;28;20402;-81
2022/03/21 06:20:16;;;;;;;61.95;34.67;;;;;;;;;;5009810;28;20099;-81
2022/03/21 06:22:42;;;;;;;63.83;35.10;;;;;;;;;;5010443;28;20072;-81
2022/03/21 06:25:10;;;;;;;61.35;31.55;;;;;;;;;;5009853;28;20034;-81
2022/03/21 06:27:37;;;;;;;54.05;30.25;;;;;;;;;;5027664;28;20045;-81
2022/03/21 06:30:04;;;;;;;45.25;28.27;;;;;;;;;;5010219;28;20045;-81
2022/03/21 06:32:30;;;;;;;46.85;27.73;;;;;;;;;;5009681;28;20073;-81
2022/03/21 06:34:56;;;;;;;40.22;26.02;;;;;;;;;;5009610;28;20124;-81
2022/03/21 06:37:23;;;;;;;44.45;26.17;;;;;;;;;;5009675;28;20085;-80
2022/03/21 06:39:49;;;;;;;38.78;24.60;;;;;;;;;;5010028;28;20398;-80
2022/03/21 06:42:16;;;;;;;43.03;26.55;;;;;;;;;;5009751;28;20124;-80
2022/03/21 06:44:43;;;;;;;40.35;23.45;;;;;;;;;;5009637;28;20041;-80
2022/03/21 06:47:09;;;;;;;34.88;23.52;;;;;;;;;;5009672;28;20037;-80
2022/03/21 06:49:36;;;;;;;34.50;22.25;;;;;;;;;;5008651;28;20037;-80
2022/03/21 06:52:04;;;;;;;34.20;21.85;;;;;;;;;;5009271;28;20090;-80
2022/03/21 06:54:30;;;;;;;34.63;21.40;;;;;;;;;;5009365;28;20041;-79
2022/03/21 06:56:56;;;;;;;32.78;21.70;;;;;;;;;;5009878;28;20435;-80
2022/03/21 06:59:23;;;;;;;33.65;20.90;;;;;;;;;;4992721;28;20391;-80
2022/03/21 07:01:50;;;;;;;30.27;19.70;;;;;;;;;;5009202;28;20116;-80
2022/03/21 07:04:16;;;;;;;31.67;19.55;;;;;;;;;;5008871;28;20157;-79
2022/03/21 07:06:42;;;;;;;26.83;18.48;;;;;;;;;;5009407;28;20034;-79
2022/03/21 07:09:08;;;;;;;27.60;18.20;;;;;;;;;;5009106;28;20173;-79
2022/03/21 07:11:35;;;;;;;25.38;18.08;;;;;;;;;;5008991;28;20398;-80
2022/03/21 07:14:02;;;;;;;27.42;17.80;;;;;;;;;;5008561;28;20048;-80
2022/03/21 07:16:28;;;;;;;28.35;18.00;;;;;;;;;;5009006;28;20087;-79
2022/03/21 07:18:54;;;;;;;27.52;17.35;;;;;;;;;;4992909;28;20052;-79
2022/03/21 07:21:20;;;;;;;25.85;17.77;;;;;;;;;;5026537;28;20038;-79
2022/03/21 07:23:46;;;;;;;26.25;16.92;;;;;;;;;;5009288;28;20120;-80
2022/03/21 07:26:13;;;;;;;25.60;16.90;;;;;;;;;;5009263;28;20041;-80
2022/03/21 07:28:39;;;;;;;28.83;17.88;;;;;;;;;;5008235;28;20081;-79
2022/03/21 07:31:09;;;;;;;27.77;17.55;;;;;;;;;;5009229;28;20053;-79
2022/03/21 07:33:39;;;;;;;25.27;17.00;;;;;;;;;;5006758;28;20085;-79
2022/03/21 07:36:05;;;;;;;29.35;17.58;;;;;;;;;;5006396;28;20118;-79
2022/03/21 07:38:32;;;;;;;27.00;17.25;;;;;;;;;;5026537;28;20052;-79
2022/03/21 07:40:58;;;;;;;25.10;17.88;;;;;;;;;;4992972;28;20386;-79
2022/03/21 07:43:25;;;;;;;24.10;16.88;;;;;;;;;;5008352;28;20045;-79
2022/03/21 07:48:35;;;;;;;26.48;17.92;;;;;;;;;;5004118;28;20128;-79
2022/03/21 07:51:03;;;;;;;27.30;16.55;;;;;;;;;;5026391;28;20049;-79
2022/03/21 07:53:29;;;;;;;23.77;16.98;;;;;;;;;;5008369;28;20081;-79
2022/03/21 07:56:00;;;;;;;30.25;19.23;;;;;;;;;;4976187;28;20102;-79
2022/03/21 07:58:26;;;;;;;26.42;18.15;;;;;;;;;;5008172;28;20103;-79
2022/03/21 08:00:52;;;;;;;27.02;17.92;;;;;;;;;;4991978;28;20490;-79
2022/03/21 08:03:19;;;;;;;30.08;19.40;;;;;;;;;;5007704;28;20041;-79
2022/03/21 08:05:46;;;;;;;29.10;18.85;;;;;;;;;;5008717;28;20049;-79
2022/03/21 08:08:12;;;;;;;27.17;18.13;;;;;;;;;;5008594;28;20050;-79
2022/03/21 08:10:38;;;;;;;27.63;19.30;;;;;;;;;;5008738;28;20052;-79
2022/03/21 08:13:04;;;;;;;28.23;18.83;;;;;;;;;;5011796;28;20054;-79
2022/03/21 08:15:30;;;;;;;28.02;19.65;;;;;;;;;;5011250;28;20085;-79
2022/03/21 08:17:58;;;;;;;30.30;18.73;;;;;;;;;;5011886;28;20042;-79
2022/03/21 08:20:33;;;;;;;29.55;18.75;;;;;;;;;;4995053;28;20128;-78
2022/03/21 08:22:59;;;;;;;29.42;18.83;;;;;;;;;;4995705;28;20034;-81
2022/03/21 08:25:26;;;;;;;29.63;18.83;;;;;;;;;;5011100;28;20049;-81
2022/03/21 08:27:52;;;;;;;30.75;19.10;;;;;;;;;;5011493;28;20051;-80
2022/03/21 08:30:19;;;;;;;31.52;19.27;;;;;;;;;;5010551;28;20121;-81
2022/03/21 08:32:48;;;;;;;29.70;18.27;;;;;;;;;;4995199;28;20083;-81
2022/03/21 08:35:16;;;;;;;28.45;19.02;;;;;;;;;;5011148;28;20061;-81
2022/03/21 08:37:42;;;;;;;27.17;19.42;;;;;;;;;;5010841;28;20113;-80
2022/03/21 08:40:09;;;;;;;32.45;19.52;;;;;;;;;;4994689;28;20041;-81
2022/03/21 08:42:36;;;;;;;28.48;19.27;;;;;;;;;;5011112;28;20041;-81
2022/03/21 08:45:02;;;;;;;27.40;19.27;;;;;;;;;;5011056;28;20090;-81
2022/03/21 08:47:28;;;;;;;28.83;19.20;;;;;;;;;;5011100;28;20436;-81
2022/03/21 08:49:54;;;;;;;26.33;18.45;;;;;;;;;;4995317;28;20424;-81
2022/03/21 08:52:20;;;;;;;26.88;17.42;;;;;;;;;;5019304;28;20052;-79
2022/03/21 08:54:46;;;;;;;25.95;17.77;;;;;;;;;;5011148;28;20044;-80
2022/03/21 08:57:13;;;;;;;26.50;17.02;;;;;;;;;;4994647;28;20073;-79
2022/03/21 08:59:39;;;;;;;27.42;18.05;;;;;;;;;;5010751;28;20077;-79
2022/03/21 09:02:05;;;;;;;26.13;17.40;;;;;;;;;;4978860;28;20636;-80
2022/03/21 09:04:32;;;;;;;25.67;18.33;;;;;;;;;;5010984;28;20049;-80
2022/03/21 09:06:58;;;;;;;25.95;18.42;;;;;;;;;;5010880;28;20041;-79
2022/03/21 09:09:24;;;;;;;23.70;17.23;;;;;;;;;;5028621;28;20034;-81
2022/03/21 09:11:51;;;;;;;24.92;17.83;;;;;;;;;;4994968;28;20375;-81
2022/03/21 09:14:17;;;;;;;27.73;18.15;;;;;;;;;;5010839;28;20045;-79
2022/03/21 09:16:43;;;;;;;23.48;16.27;;;;;;;;;;4978338;28;20124;-79
2022/03/21 09:19:10;;;;;;;24.02;17.48;;;;;;;;;;5010574;28;20041;-79
2022/03/21 09:21:37;;;;;;;23.02;17.40;;;;;;;;;;5009842;28;20044;-81
2022/03/21 09:24:03;;;;;;;25.58;16.92;;;;;;;;;;5010513;28;20390;-80
2022/03/21 09:26:30;;;;;;;23.30;17.58;;;;;;;;;;5020175;28;20042;-80
2022/03/21 09:29:05;;;;;;;24.65;16.10;;;;;;;;;;4992239;28;20043;-80
2022/03/21 09:31:32;;;;;;;23.10;15.55;;;;;;;;;;5010394;28;20056;-80
2022/03/21 09:33:58;;;;;;;23.67;16.35;;;;;;;;;;5010372;28;20041;-80
2022/03/21 09:36:24;;;;;;;21.55;16.13;;;;;;;;;;5009898;28;20053;-80
2022/03/21 09:38:50;;;;;;;24.85;15.52;;;;;;;;;;5010412;28;20041;-79
2022/03/21 09:41:22;;;;;;;24.90;16.95;;;;;;;;;;5028081;28;20037;-80
2022/03/21 09:43:52;;;;;;;20.23;15.82;;;;;;;;;;5010263;28;20444;-80
2022/03/21 09:46:20;;;;;;;22.70;16.65;;;;;;;;;;5010093;28;20098;-80
2022/03/21 09:48:50;;;;;;;23.20;16.38;;;;;;;;;;5027844;28;20052;-81
2022/03/21 09:51:26;;;;;;;20.08;16.08;;;;;;;;;;5020482;28;20072;-80
2022/03/21 09:53:53;;;;;;;20.65;16.10;;;;;;;;;;4992194;28;20072;-80
2022/03/21 09:56:19;;;;;;;20.15;15.73;;;;;;;;;;4993354;28;20380;-79
2022/03/21 09:58:47;;;;;;;25.58;16.58;;;;;;;;;;5010348;28;20045;-79
2022/03/21 10:01:14;;;;;;;23.88;16.95;;;;;;;;;;5010107;28;20077;-78
2022/03/21 10:03:40;;;;;;;27.55;19.08;;;;;;;;;;5009655;28;20541;-80
2022/03/21 10:06:24;;;;;;;27.13;19.30;;;;;;;;;;5009591;28;20077;-81
2022/03/21 10:08:50;;;;;;;28.38;20.70;;;;;;;;;;4993774;28;20110;-80
2022/03/21 10:11:22;;;;;;;32.22;21.85;;;;;;;;;;5009930;28;20129;-80
2022/03/21 10:13:48;;;;;;;34.55;23.08;;;;;;;;;;5009755;28;20091;-80
2022/03/21 10:16:15;;;;;;;34.55;21.65;;;;;;;;;;5009197;28;20098;-79
2022/03/21 10:18:54;;;;;;;36.75;24.75;;;;;;;;;;5009602;28;20045;-80
2022/03/21 10:21:21;;;;;;;36.92;23.95;;;;;;;;;;4993555;28;20459;-79
2022/03/21 10:24:06;;;;;;;39.80;26.95;;;;;;;;;;5009855;28;20044;-79
2022/03/21 10:26:33;;;;;;;44.53;28.20;;;;;;;;;;5009375;28;20132;-80
2022/03/21 10:29:00;;;;;;;41.63;27.35;;;;;;;;;;5010294;28;20061;-80
2022/03/21 10:31:34;;;;;;;42.25;28.15;;;;;;;;;;5009550;28;20041;-79
2022/03/21 10:34:01;;;;;;;39.90;28.13;;;;;;;;;;5009345;28;20046;-80
2022/03/21 10:36:27;;;;;;;40.83;26.55;;;;;;;;;;4992693;28;20105;-80
2022/03/21 10:39:05;;;;;;;39.15;26.52;;;;;;;;;;4993719;28;20493;-80
2022/03/21 10:41:35;;;;;;;43.40;29.27;;;;;;;;;;5008144;28;20132;-79
2022/03/21 10:44:02;;;;;;;44.15;29.33;;;;;;;;;;4993436;28;20041;-77
2022/03/21 10:46:29;;;;;;;41.90;28.38;;;;;;;;;;5026735;28;20143;-79
2022/03/21 10:49:06;;;;;;;36.70;24.85;;;;;;;;;;5009318;28;20067;-79
2022/03/21 10:51:53;;;;;;;33.83;24.40;;;;;;;;;;5017175;28;20050;-77
2022/03/21 10:54:38;;;;;;;28.70;22.65;;;;;;;;;;5009092;28;20083;-77
2022/03/21 10:57:05;;;;;;;25.88;20.42;;;;;;;;;;5009256;28;20037;-80
2022/03/21 10:59:31;;;;;;;24.50;18.77;;;;;;;;;;5009263;28;20409;-80
2022/03/21 11:02:11;;;;;;;27.58;19.85;;;;;;;;;;5009227;28;20078;-79
2022/03/21 11:04:38;;;;;;;23.70;17.83;;;;;;;;;;4992502;28;20091;-79
2022/03/21 11:07:05;;;;;;;23.77;19.08;;;;;;;;;;4992859;28;20091;-79
2022/03/21 11:09:32;;;;;;;24.95;18.38;;;;;;;;;;4992726;28;20045;-78
2022/03/21 11:11:59;;;;;;;23.52;17.67;;;;;;;;;;5026893;28;20034;-77
2022/03/21 11:14:25;;;;;;;18.17;15.35;;;;;;;;;;4992443;28;22008;-79
2022/03/21 11:16:53;;;;;;;18.13;14.63;;;;;;;;;;5008924;28;20045;-79
2022/03/21 11:19:19;;;;;;;18.80;15.38;;;;;;;;;;5008985;28;20463;-78
2022/03/21 11:21:45;;;;;;;18.95;15.95;;;;;;;;;;5008805;28;20104;-78
2022/03/21 11:24:12;;;;;;;19.02;15.35;;;;;;;;;;5008930;28;20048;-78
2022/03/21 11:26:38;;;;;;;18.17;15.15;;;;;;;;;;5009041;28;20398;-77
2022/03/21 11:29:10;;;;;;;19.27;15.70;;;;;;;;;;5009745;28;20513;-78
2022/03/21 11:31:39;;;;;;;20.95;15.43;;;;;;;;;;5009801;28;20052;-78
2022/03/21 11:34:12;;;;;;;20.55;16.13;;;;;;;;;;5010238;28;20398;-78
2022/03/21 11:36:57;;;;;;;21.40;16.58;;;;;;;;;;5009498;28;20046;-78
2022/03/21 11:39:23;;;;;;;;;;;;;;;;;;5027296;28;20446;-78
2022/03/21 11:41:57;;;;;;;19.77;15.13;;;;;;;;;;5009710;28;19973;-78
2022/03/21 11:44:23;;;;;;;19.52;15.82;;;;;;;;;;5009529;28;20574;-78
2022/03/21 11:46:49;;;;;;;20.08;15.52;;;;;;;;;;4995388;28;20046;-76
2022/03/21 11:49:18;;;;;;;20.45;15.38;;;;;;;;;;5012416;28;20483;-76
2022/03/21 11:51:45;;;;;;;21.00;16.00;;;;;;;;;;5011946;28;20048;-75
2022/03/21 11:54:28;;;;;;;21.40;15.63;;;;;;;;;;5012427;28;20387;-75
2022/03/21 11:56:54;;;;;;;19.85;15.30;;;;;;;;;;5012086;28;20045;-76
2022/03/21 11:59:33;;;;;;;19.63;15.68;;;;;;;;;;5011812;28;20038;-76
2022/03/21 12:02:20;;;;;;;20.90;15.93;;;;;;;;;;5010013;28;20041;-79
2022/03/21 12:04:57;;;;;;;21.30;15.23;;;;;;;;;;5017768;28;20098;-76
2022/03/21 12:07:28;;;;;;;19.73;16.15;;;;;;;;;;5012453;28;20508;-78
2022/03/21 12:09:55;;;;;;;21.48;16.10;;;;;;;;;;4994150;28;20049;-78
2022/03/21 12:12:41;;;;;;;21.42;16.15;;;;;;;;;;5012042;28;20549;-78
2022/03/21 12:15:33;;;;;;;21.38;16.33;;;;;;;;;;5008266;28;20034;-77
2022/03/21 12:17:59;;;;;;;21.98;15.85;;;;;;;;;;4995623;28;20040;-78
2022/03/21 12:20:25;;;;;;;19.73;15.10;;;;;;;;;;5011442;28;20489;-78
2022/03/21 12:23:00;;;;;;;20.02;15.07;;;;;;;;;;5011632;28;20073;-78
2022/03/21 12:25:29;;;;;;;21.43;15.83;;;;;;;;;;4994502;28;20550;-78
2022/03/21 12:27:55;;;;;;;21.02;15.85;;;;;;;;;;5011315;28;20037;-76
2022/03/21 12:30:26;;;;;;;22.73;15.43;;;;;;;;;;5011179;28;20033;-75
2022/03/21 12:32:56;;;;;;;19.92;14.40;;;;;;;;;;5010872;28;20053;-78
2022/03/21 12:35:31;;;;;;;20.35;14.35;;;;;;;;;;5010817;28;20500;-78
2022/03/21 12:38:04;;;;;;;22.52;15.48;;;;;;;;;;5011057;28;20397;-78
2022/03/21 12:40:32;;;;;;;20.40;14.65;;;;;;;;;;5028842;28;20818;-78
2022/03/21 12:42:59;;;;;;;21.67;14.52;;;;;;;;;;5011570;28;20530;-78
2022/03/21 12:45:26;;;;;;;27.77;15.90;;;;;;;;;;5029031;28;20077;-77
2022/03/21 12:47:52;;;;;;;22.80;15.18;;;;;;;;;;5011468;28;20044;-77
2022/03/21 12:50:19;;;;;;;21.20;15.43;;;;;;;;;;5010961;28;20033;-78
2022/03/21 12:52:51;;;;;;;22.92;15.35;;;;;;;;;;4994878;28;20477;-78
2022/03/21 12:55:18;;;;;;;22.23;15.55;;;;;;;;;;4994917;28;20490;-78
2022/03/21 12:57:53;;;;;;;23.15;15.35;;;;;;;;;;5010565;28;20390;-76
2022/03/21 13:00:20;;;;;;;21.98;15.63;;;;;;;;;;5028469;28;20030;-77
2022/03/21 13:02:47;;;;;;;22.25;14.98;;;;;;;;;;5011348;28;20414;-78
2022/03/21 13:10:43;;;;;;;25.83;16.15;;;;;;;;;;5028706;28;20042;-78
2022/03/21 13:13:10;;;;;;;24.75;15.45;;;;;;;;;;5028747;28;20033;-77
2022/03/21 13:15:36;;;;;;;25.48;15.55;;;;;;;;;;5010682;28;20125;-77
2022/03/21 13:18:03;;;;;;;24.92;15.02;;;;;;;;;;4994514;28;20044;-79
2022/03/21 13:20:34;;;;;;;23.52;15.65;;;;;;;;;;5010378;28;20093;-79
2022/03/21 13:23:01;;;;;;;25.48;15.88;;;;;;;;;;4994507;28;20042;-79
2022/03/21 13:25:35;;;;;;;22.08;15.82;;;;;;;;;;5010706;28;20045;-78
2022/03/21 13:28:06;;;;;;;26.35;16.65;;;;;;;;;;5028328;28;20089;-79
2022/03/21 13:30:33;;;;;;;24.05;15.70;;;;;;;;;;5010578;28;20087;-79
2022/03/21 13:32:59;;;;;;;27.55;15.77;;;;;;;;;;5028115;28;20033;-75
2022/03/21 13:35:26;;;;;;;28.88;16.52;;;;;;;;;;4977569;28;20041;-75
2022/03/21 13:38:02;;;;;;;26.52;16.08;;;;;;;;;;5010453;28;20040;-75
2022/03/21 13:40:29;;;;;;;25.10;15.85;;;;;;;;;;5010245;28;20379;-75
2022/03/21 13:42:55;;;;;;;24.33;15.95;;;;;;;;;;5010343;28;20293;-75
2022/03/21 13:45:22;;;;;;;27.60;16.23;;;;;;;;;;5010548;28;20053;-75
2022/03/21 13:47:49;;;;;;;23.60;15.48;;;;;;;;;;5010427;28;20045;-75
2022/03/21 13:50:16;;;;;;;24.48;15.50;;;;;;;;;;5010097;28;20193;-78
2022/03/21 13:52:46;;;;;;;25.95;15.18;;;;;;;;;;4994074;28;20492;-75
2022/03/21 13:55:15;;;;;;;24.33;15.20;;;;;;;;;;4993766;28;20033;-78
2022/03/21 13:58:01;;;;;;;24.88;15.90;;;;;;;;;;5009722;28;20040;-77
2022/03/21 14:00:28;;;;;;;25.98;15.80;;;;;;;;;;5010095;28;20461;-78
2022/03/21 14:02:55;;;;;;;27.40;15.80;;;;;;;;;;5010566;28;20058;-78
2022/03/21 14:05:23;;;;;;;25.30;15.73;;;;;;;;;;5010991;28;20045;-78
2022/03/21 14:07:51;;;;;;;28.27;16.33;;;;;;;;;;5009935;28;20056;-77
2022/03/21 14:10:20;;;;;;;27.23;15.57;;;;;;;;;;5009915;28;20053;-79
2022/03/21 14:12:51;;;;;;;30.70;15.98;;;;;;;;;;5010277;28;20481;-78
2022/03/21 14:15:21;;;;;;;24.83;16.30;;;;;;;;;;5010151;28;20462;-78
2022/03/21 14:17:47;;;;;;;26.00;15.27;;;;;;;;;;5027343;28;20056;-78
2022/03/21 14:20:17;;;;;;;28.50;16.08;;;;;;;;;;5009891;28;20033;-77
2022/03/21 14:22:43;;;;;;;26.00;15.52;;;;;;;;;;5009802;28;20050;-74
2022/03/21 14:27:54;;;;;;;24.27;16.15;;;;;;;;;;5027919;28;20526;-74
2022/03/21 14:30:20;;;;;;;27.33;15.93;;;;;;;;;;4993382;28;20044;-74
2022/03/21 14:32:47;;;;;;;26.00;15.05;;;;;;;;;;5026546;28;20096;-74
2022/03/21 14:35:13;;;;;;;24.42;15.70;;;;;;;;;;5027317;28;20048;-74
2022/03/21 14:37:39;;;;;;;23.92;15.77;;;;;;;;;;5027082;28;20539;-74
2022/03/21 14:40:06;;;;;;;29.88;16.52;;;;;;;;;;5009173;28;20029;-74
2022/03/21 14:42:32;;;;;;;27.90;16.08;;;;;;;;;;5009451;28;20037;-74